CDT,Max TemperatureF,Mean TemperatureF,Min TemperatureF,Max Dew PointF,MeanDew PointF,Min DewpointF,Max Humidity, Mean Humidity, Min Humidity, Max Sea Level PressureIn, Mean Sea Level PressureIn, Min Sea Level PressureIn, Max VisibilityMiles, Mean VisibilityMiles, Min VisibilityMiles, Max Wind SpeedMPH, Mean Wind SpeedMPH, Max Gust SpeedMPH,PrecipitationIn, CloudCover, Events, WindDirDegrees
2012-10-1,66,50,35,39,34,28,93,54,24,30.16,30.07,29.90,10,10,10,16,10,25,0.00,2,,290
2012-10-2,71,56,41,41,36,30,81,48,30,29.89,29.71,29.59,10,10,9,29,15,37,0.00,0,,240
2012-10-3,44,38,32,43,37,30,100,92,76,30.17,30.02,29.80,10,7,3,29,11,36,1.81,4,Rain-Snow,358
2012-10-4,41,36,32,37,32,25,100,86,65,30.26,30.21,30.17,10,9,5,30,22,40,0.29,5,Rain,342
2012-10-5,35,30,26,32,28,23,100,88,75,30.36,30.28,30.23,10,8,1,24,16,32,0.30,6,Rain-Snow,322
2012-10-6,44,34,24,30,26,23,100,75,43,30.37,30.28,30.07,10,10,10,18,9,22,0.00,3,,279
2012-10-7,53,42,32,36,30,27,81,68,41,30.06,29.86,29.70,10,10,8,15,10,21,0.00,6,,259
2012-10-8,50,44,37,43,38,32,100,85,58,29.69,29.59,29.50,10,10,3,22,8,30,0.01,7,Rain,283
2012-10-9,41,34,28,34,29,23,100,80,52,30.00,29.88,29.64,10,10,2,24,16,33,0.06,7,Rain-Snow,319
2012-10-10,37,30,23,36,31,23,100,95,75,30.00,29.95,29.89,10,10,4,12,5,,0.00,6,,264
2012-10-11,41,32,23,32,25,19,100,75,42,30.34,30.23,30.01,10,10,9,18,11,25,0.00,1,,327
2012-10-12,51,37,23,28,26,19,100,67,38,30.32,30.03,29.69,10,10,10,31,12,38,0.00,2,,176
2012-10-13,57,42,28,34,30,27,100,68,38,29.92,29.72,29.62,10,10,5,16,8,22,0.00,0,,6
2012-10-14,59,42,24,37,33,25,100,86,45,29.99,29.94,29.88,10,9,1,10,5,,0.00,1,,314
2012-10-15,69,53,37,45,40,36,100,68,35,29.88,29.67,29.54,10,10,8,20,10,25,0.00,2,,208
2012-10-16,62,48,33,48,43,34,100,80,55,29.58,29.42,29.22,10,9,5,12,7,,0.00,1,,183
2012-10-17,51,48,44,52,46,43,100,98,93,29.24,29.19,29.16,10,7,3,26,15,37,0.25,7,Rain,285
2012-10-18,46,42,39,46,42,37,100,95,87,29.84,29.53,29.23,10,8,2,37,26,55,0.09,8,Rain,343
2012-10-19,42,40,37,39,37,36,100,92,81,29.86,29.79,29.68,10,10,10,25,16,31,0.00,8,,354
2012-10-20,53,44,35,46,41,36,100,92,71,29.68,29.58,29.52,10,10,9,18,11,23,0.00,3,,162
2012-10-21,50,41,32,45,37,32,100,81,50,30.08,29.87,29.62,10,10,9,22,6,28,0.00,4,Rain,340
2012-10-22,42,35,28,39,33,28,100,84,70,30.13,30.06,29.91,10,10,9,14,7,21,0.00,6,Rain,57
2012-10-23,48,42,37,48,43,37,100,100,100,29.89,29.71,29.62,10,6,1,22,13,28,0.03,8,Rain,133
2012-10-24,39,34,30,37,31,27,100,90,75,30.01,29.93,29.79,10,10,10,22,15,28,0.00,7,,288
2012-10-25,37,34,32,30,27,23,93,79,60,30.12,30.01,29.97,10,10,2,29,16,38,0.07,8,Rain-Snow,300
2012-10-26,33,28,23,27,22,18,93,75,55,30.26,30.21,30.14,10,10,0,24,16,31,0.22,7,Snow,294
2012-10-27,32,24,15,21,17,14,100,78,51,30.28,30.25,30.22,10,10,10,9,6,,0.00,5,,281
2012-10-28,32,23,14,27,19,10,100,84,64,30.28,30.23,30.17,10,10,5,16,7,22,0.00,5,,95
2012-10-29,44,36,28,37,33,27,100,93,76,30.16,30.11,30.08,10,8,2,16,13,21,0.00,6,,117
2012-10-30,42,38,35,41,38,34,100,96,87,30.08,30.03,29.98,10,7,2,20,12,26,0.00,8,,142
2012-10-31,44,38,32,45,36,28,100,97,87,30.13,30.01,29.94,10,8,5,20,8,24,0.00,6,,38